sensor_id;sensor_type;location;lat;lon;timestamp;temperature;humidity
43581;DHT22;29175;51.030;4.606;2024-02-21T00:01:56;9.80;99.90
43581;DHT22;29175;51.030;4.606;2024-02-21T00:04:24;9.80;99.90
43581;DHT22;29175;51.030;4.606;2024-02-21T00:06:51;9.80;99.90
43581;DHT22;29175;51.030;4.606;2024-02-21T00:09:17;9.70;99.90
43581;DHT22;29175;51.030;4.606;2024-02-21T00:11:46;9.80;99.90
43581;DHT22;29175;51.030;4.606;2024-02-21T00:14:14;9.80;99.90
43581;DHT22;29175;51.030;4.606;2024-02-21T00:16:40;9.90;99.90
43581;DHT22;29175;51.030;4.606;2024-02-21T00:19:07;9.80;99.90
43581;DHT22;29175;51.030;4.606;2024-02-21T00:21:34;9.90;99.90
43581;DHT22;29175;51.030;4.606;2024-02-21T00:24:00;9.80;99.90
43581;DHT22;29175;51.030;4.606;2024-02-21T00:26:26;9.80;99.90
43581;DHT22;29175;51.030;4.606;2024-02-21T00:28:55;9.90;99.90
43581;DHT22;29175;51.030;4.606;2024-02-21T00:31:21;9.80;99.90
43581;DHT22;29175;51.030;4.606;2024-02-21T00:33:49;9.90;99.90
43581;DHT22;29175;51.030;4.606;2024-02-21T00:36:17;9.90;99.90
43581;DHT22;29175;51.030;4.606;2024-02-21T00:38:43;9.90;99.90
43581;DHT22;29175;51.030;4.606;2024-02-21T00:41:12;9.90;99.90
43581;DHT22;29175;51.030;4.606;2024-02-21T00:43:38;9.80;99.90
43581;DHT22;29175;51.030;4.606;2024-02-21T00:46:06;9.80;99.90
43581;DHT22;29175;51.030;4.606;2024-02-21T00:48:34;9.90;99.90
43581;DHT22;29175;51.030;4.606;2024-02-21T00:51:00;9.90;99.90
43581;DHT22;29175;51.030;4.606;2024-02-21T00:53:26;9.90;99.90
43581;DHT22;29175;51.030;4.606;2024-02-21T00:55:52;9.80;99.90
43581;DHT22;29175;51.030;4.606;2024-02-21T00:58:17;9.90;99.90
43581;DHT22;29175;51.030;4.606;2024-02-21T01:00:44;9.90;99.90
43581;DHT22;29175;51.030;4.606;2024-02-21T01:03:11;9.90;99.90
43581;DHT22;29175;51.030;4.606;2024-02-21T01:05:36;9.90;99.90
43581;DHT22;29175;51.030;4.606;2024-02-21T01:08:02;10.00;99.90
43581;DHT22;29175;51.030;4.606;2024-02-21T01:10:28;9.90;99.90
43581;DHT22;29175;51.030;4.606;2024-02-21T01:12:54;9.80;99.90
43581;DHT22;29175;51.030;4.606;2024-02-21T01:15:20;9.90;99.90
43581;DHT22;29175;51.030;4.606;2024-02-21T01:17:46;9.80;99.90
43581;DHT22;29175;51.030;4.606;2024-02-21T01:20:12;9.70;99.90
43581;DHT22;29175;51.030;4.606;2024-02-21T01:22:38;9.90;99.90
43581;DHT22;29175;51.030;4.606;2024-02-21T01:25:06;9.80;99.90
43581;DHT22;29175;51.030;4.606;2024-02-21T01:27:34;9.80;99.90
43581;DHT22;29175;51.030;4.606;2024-02-21T01:30:01;9.80;99.90
43581;DHT22;29175;51.030;4.606;2024-02-21T01:32:27;9.90;99.90
43581;DHT22;29175;51.030;4.606;2024-02-21T01:34:54;9.80;99.90
43581;DHT22;29175;51.030;4.606;2024-02-21T01:37:20;9.80;99.90
43581;DHT22;29175;51.030;4.606;2024-02-21T01:39:45;9.60;99.90
43581;DHT22;29175;51.030;4.606;2024-02-21T01:42:12;9.70;99.90
43581;DHT22;29175;51.030;4.606;2024-02-21T01:44:38;9.80;99.90
43581;DHT22;29175;51.030;4.606;2024-02-21T01:47:03;9.80;99.90
43581;DHT22;29175;51.030;4.606;2024-02-21T01:49:32;9.80;99.90
43581;DHT22;29175;51.030;4.606;2024-02-21T01:51:58;9.80;99.90
43581;DHT22;29175;51.030;4.606;2024-02-21T01:54:25;9.90;99.90
43581;DHT22;29175;51.030;4.606;2024-02-21T01:56:54;9.70;99.90
43581;DHT22;29175;51.030;4.606;2024-02-21T01:59:21;9.50;99.90
43581;DHT22;29175;51.030;4.606;2024-02-21T02:01:51;9.40;99.90
43581;DHT22;29175;51.030;4.606;2024-02-21T02:04:20;9.40;99.90
43581;DHT22;29175;51.030;4.606;2024-02-21T02:06:47;9.30;99.90
43581;DHT22;29175;51.030;4.606;2024-02-21T02:09:13;9.40;99.90
43581;DHT22;29175;51.030;4.606;2024-02-21T02:11:39;9.50;99.90
43581;DHT22;29175;51.030;4.606;2024-02-21T02:14:07;9.50;99.90
43581;DHT22;29175;51.030;4.606;2024-02-21T02:16:34;9.40;99.90
43581;DHT22;29175;51.030;4.606;2024-02-21T02:18:59;9.50;99.90
43581;DHT22;29175;51.030;4.606;2024-02-21T02:21:38;9.60;99.90
43581;DHT22;29175;51.030;4.606;2024-02-21T02:24:05;9.70;99.90
43581;DHT22;29175;51.030;4.606;2024-02-21T02:26:31;9.70;99.90
43581;DHT22;29175;51.030;4.606;2024-02-21T02:28:58;9.70;99.90
43581;DHT22;29175;51.030;4.606;2024-02-21T02:31:23;9.70;99.90
43581;DHT22;29175;51.030;4.606;2024-02-21T02:33:49;9.80;99.90
43581;DHT22;29175;51.030;4.606;2024-02-21T02:36:16;9.70;99.90
43581;DHT22;29175;51.030;4.606;2024-02-21T02:38:43;9.70;99.90
43581;DHT22;29175;51.030;4.606;2024-02-21T02:41:09;10.00;99.90
43581;DHT22;29175;51.030;4.606;2024-02-21T02:43:35;10.10;99.90
43581;DHT22;29175;51.030;4.606;2024-02-21T02:46:02;10.10;99.90
43581;DHT22;29175;51.030;4.606;2024-02-21T02:48:30;10.00;99.90
43581;DHT22;29175;51.030;4.606;2024-02-21T02:50:56;10.00;99.90
43581;DHT22;29175;51.030;4.606;2024-02-21T02:53:28;9.90;99.90
43581;DHT22;29175;51.030;4.606;2024-02-21T02:55:55;10.00;99.90
43581;DHT22;29175;51.030;4.606;2024-02-21T02:58:21;9.80;99.90
43581;DHT22;29175;51.030;4.606;2024-02-21T03:00:47;9.80;99.90
43581;DHT22;29175;51.030;4.606;2024-02-21T03:03:13;9.80;99.90
43581;DHT22;29175;51.030;4.606;2024-02-21T03:05:40;9.70;99.90
43581;DHT22;29175;51.030;4.606;2024-02-21T03:08:06;9.70;99.90
43581;DHT22;29175;51.030;4.606;2024-02-21T03:10:34;9.60;99.90
43581;DHT22;29175;51.030;4.606;2024-02-21T03:13:01;9.60;99.90
43581;DHT22;29175;51.030;4.606;2024-02-21T03:15:27;9.50;99.90
43581;DHT22;29175;51.030;4.606;2024-02-21T03:17:53;9.70;99.90
43581;DHT22;29175;51.030;4.606;2024-02-21T03:20:18;9.60;99.90
43581;DHT22;29175;51.030;4.606;2024-02-21T03:22:46;9.70;99.90
43581;DHT22;29175;51.030;4.606;2024-02-21T03:25:13;9.70;99.90
43581;DHT22;29175;51.030;4.606;2024-02-21T03:27:39;9.70;99.90
43581;DHT22;29175;51.030;4.606;2024-02-21T03:30:08;9.80;99.90
43581;DHT22;29175;51.030;4.606;2024-02-21T03:32:34;9.70;99.90
43581;DHT22;29175;51.030;4.606;2024-02-21T03:35:03;9.70;99.90
43581;DHT22;29175;51.030;4.606;2024-02-21T03:37:29;9.60;99.90
43581;DHT22;29175;51.030;4.606;2024-02-21T03:39:56;9.70;99.90
43581;DHT22;29175;51.030;4.606;2024-02-21T03:42:21;9.60;99.90
43581;DHT22;29175;51.030;4.606;2024-02-21T03:44:48;9.50;99.90
43581;DHT22;29175;51.030;4.606;2024-02-21T03:47:14;9.50;99.90
43581;DHT22;29175;51.030;4.606;2024-02-21T03:49:40;9.40;99.90
43581;DHT22;29175;51.030;4.606;2024-02-21T03:52:05;9.50;99.90
43581;DHT22;29175;51.030;4.606;2024-02-21T03:54:32;9.60;99.90
43581;DHT22;29175;51.030;4.606;2024-02-21T03:57:00;9.50;99.90
43581;DHT22;29175;51.030;4.606;2024-02-21T03:59:25;9.40;99.90
43581;DHT22;29175;51.030;4.606;2024-02-21T04:01:52;9.40;99.90
43581;DHT22;29175;51.030;4.606;2024-02-21T04:04:18;9.50;99.90
43581;DHT22;29175;51.030;4.606;2024-02-21T04:06:49;9.40;99.90
43581;DHT22;29175;51.030;4.606;2024-02-21T04:09:17;9.40;99.90
43581;DHT22;29175;51.030;4.606;2024-02-21T04:11:45;9.40;99.90
43581;DHT22;29175;51.030;4.606;2024-02-21T04:14:10;9.50;99.90
43581;DHT22;29175;51.030;4.606;2024-02-21T04:16:40;9.60;99.90
43581;DHT22;29175;51.030;4.606;2024-02-21T04:19:06;9.60;99.90
43581;DHT22;29175;51.030;4.606;2024-02-21T04:21:32;9.60;99.90
43581;DHT22;29175;51.030;4.606;2024-02-21T04:23:59;9.70;99.90
43581;DHT22;29175;51.030;4.606;2024-02-21T04:26:26;9.60;99.90
43581;DHT22;29175;51.030;4.606;2024-02-21T04:28:53;9.80;99.90
43581;DHT22;29175;51.030;4.606;2024-02-21T04:31:19;9.80;99.90
43581;DHT22;29175;51.030;4.606;2024-02-21T04:33:46;9.80;99.90
43581;DHT22;29175;51.030;4.606;2024-02-21T04:36:12;9.70;99.90
43581;DHT22;29175;51.030;4.606;2024-02-21T04:38:38;9.80;99.90
43581;DHT22;29175;51.030;4.606;2024-02-21T04:41:05;9.60;99.90
43581;DHT22;29175;51.030;4.606;2024-02-21T04:43:31;9.60;99.90
43581;DHT22;29175;51.030;4.606;2024-02-21T04:45:58;9.50;99.90
43581;DHT22;29175;51.030;4.606;2024-02-21T04:48:23;9.50;99.90
43581;DHT22;29175;51.030;4.606;2024-02-21T04:50:49;9.50;99.90
43581;DHT22;29175;51.030;4.606;2024-02-21T04:53:17;9.40;99.90
43581;DHT22;29175;51.030;4.606;2024-02-21T04:55:45;9.60;99.90
43581;DHT22;29175;51.030;4.606;2024-02-21T04:58:13;9.40;99.90
43581;DHT22;29175;51.030;4.606;2024-02-21T05:00:41;9.70;99.90
43581;DHT22;29175;51.030;4.606;2024-02-21T05:03:09;9.50;99.90
43581;DHT22;29175;51.030;4.606;2024-02-21T05:05:34;9.60;99.90
43581;DHT22;29175;51.030;4.606;2024-02-21T05:08:02;9.50;99.90
43581;DHT22;29175;51.030;4.606;2024-02-21T05:10:27;9.40;99.90
43581;DHT22;29175;51.030;4.606;2024-02-21T05:12:54;9.30;99.90
43581;DHT22;29175;51.030;4.606;2024-02-21T05:15:20;9.40;99.90
43581;DHT22;29175;51.030;4.606;2024-02-21T05:17:45;9.70;99.90
43581;DHT22;29175;51.030;4.606;2024-02-21T05:20:11;9.60;99.90
43581;DHT22;29175;51.030;4.606;2024-02-21T05:22:38;9.60;99.90
43581;DHT22;29175;51.030;4.606;2024-02-21T05:25:04;9.50;99.90
43581;DHT22;29175;51.030;4.606;2024-02-21T05:27:30;9.60;99.90
43581;DHT22;29175;51.030;4.606;2024-02-21T05:29:57;9.50;99.90
43581;DHT22;29175;51.030;4.606;2024-02-21T05:32:23;9.50;99.90
43581;DHT22;29175;51.030;4.606;2024-02-21T05:34:50;9.50;99.90
43581;DHT22;29175;51.030;4.606;2024-02-21T05:37:17;9.50;99.90
43581;DHT22;29175;51.030;4.606;2024-02-21T05:39:44;9.60;99.90
43581;DHT22;29175;51.030;4.606;2024-02-21T05:42:11;9.60;99.90
43581;DHT22;29175;51.030;4.606;2024-02-21T05:44:37;9.60;99.90
43581;DHT22;29175;51.030;4.606;2024-02-21T05:47:05;9.60;99.90
43581;DHT22;29175;51.030;4.606;2024-02-21T05:49:39;9.70;99.90
43581;DHT22;29175;51.030;4.606;2024-02-21T05:52:05;9.70;99.90
43581;DHT22;29175;51.030;4.606;2024-02-21T05:54:31;9.70;99.90
43581;DHT22;29175;51.030;4.606;2024-02-21T05:56:59;9.70;99.90
43581;DHT22;29175;51.030;4.606;2024-02-21T05:59:24;9.80;99.90
43581;DHT22;29175;51.030;4.606;2024-02-21T06:02:00;9.80;99.90
43581;DHT22;29175;51.030;4.606;2024-02-21T06:04:29;9.90;99.90
43581;DHT22;29175;51.030;4.606;2024-02-21T06:06:56;9.90;99.90
43581;DHT22;29175;51.030;4.606;2024-02-21T06:09:22;9.80;99.90
43581;DHT22;29175;51.030;4.606;2024-02-21T06:11:49;9.80;99.90
43581;DHT22;29175;51.030;4.606;2024-02-21T06:14:15;9.90;99.90
43581;DHT22;29175;51.030;4.606;2024-02-21T06:16:41;10.00;99.90
43581;DHT22;29175;51.030;4.606;2024-02-21T06:19:06;10.00;99.90
43581;DHT22;29175;51.030;4.606;2024-02-21T06:21:33;9.80;99.90
43581;DHT22;29175;51.030;4.606;2024-02-21T06:24:00;9.70;99.90
43581;DHT22;29175;51.030;4.606;2024-02-21T06:26:26;9.80;99.90
43581;DHT22;29175;51.030;4.606;2024-02-21T06:28:52;9.70;99.90
43581;DHT22;29175;51.030;4.606;2024-02-21T06:31:17;9.70;99.90
43581;DHT22;29175;51.030;4.606;2024-02-21T06:33:44;9.80;99.90
43581;DHT22;29175;51.030;4.606;2024-02-21T06:36:11;10.00;99.90
43581;DHT22;29175;51.030;4.606;2024-02-21T06:38:37;9.90;99.90
43581;DHT22;29175;51.030;4.606;2024-02-21T06:41:02;9.80;99.90
43581;DHT22;29175;51.030;4.606;2024-02-21T06:43:29;9.80;99.90
43581;DHT22;29175;51.030;4.606;2024-02-21T06:45:55;9.80;99.90
43581;DHT22;29175;51.030;4.606;2024-02-21T06:48:23;9.70;99.90
43581;DHT22;29175;51.030;4.606;2024-02-21T06:50:48;9.60;99.90
43581;DHT22;29175;51.030;4.606;2024-02-21T06:53:14;9.50;99.90
43581;DHT22;29175;51.030;4.606;2024-02-21T06:55:40;9.70;99.90
43581;DHT22;29175;51.030;4.606;2024-02-21T06:58:07;9.60;99.90
43581;DHT22;29175;51.030;4.606;2024-02-21T07:00:37;9.70;99.90
43581;DHT22;29175;51.030;4.606;2024-02-21T07:03:02;9.80;99.90
43581;DHT22;29175;51.030;4.606;2024-02-21T07:05:30;9.90;99.90
43581;DHT22;29175;51.030;4.606;2024-02-21T07:07:57;9.90;99.90
43581;DHT22;29175;51.030;4.606;2024-02-21T07:10:22;9.80;99.90
43581;DHT22;29175;51.030;4.606;2024-02-21T07:12:50;9.80;99.90
43581;DHT22;29175;51.030;4.606;2024-02-21T07:15:18;9.80;99.90
43581;DHT22;29175;51.030;4.606;2024-02-21T07:17:44;9.90;99.90
43581;DHT22;29175;51.030;4.606;2024-02-21T07:20:10;9.90;99.90
43581;DHT22;29175;51.030;4.606;2024-02-21T07:22:37;9.90;99.90
43581;DHT22;29175;51.030;4.606;2024-02-21T07:25:04;9.90;99.90
43581;DHT22;29175;51.030;4.606;2024-02-21T07:27:33;9.90;99.90
43581;DHT22;29175;51.030;4.606;2024-02-21T07:29:59;9.90;99.90
43581;DHT22;29175;51.030;4.606;2024-02-21T07:32:25;9.70;99.90
43581;DHT22;29175;51.030;4.606;2024-02-21T07:34:52;9.80;99.90
43581;DHT22;29175;51.030;4.606;2024-02-21T07:37:18;10.00;99.90
43581;DHT22;29175;51.030;4.606;2024-02-21T07:39:45;9.70;99.90
43581;DHT22;29175;51.030;4.606;2024-02-21T07:42:11;9.80;99.90
43581;DHT22;29175;51.030;4.606;2024-02-21T07:44:37;10.10;99.90
43581;DHT22;29175;51.030;4.606;2024-02-21T07:47:03;9.80;99.90
43581;DHT22;29175;51.030;4.606;2024-02-21T07:49:29;9.70;99.90
43581;DHT22;29175;51.030;4.606;2024-02-21T07:51:56;9.70;99.90
43581;DHT22;29175;51.030;4.606;2024-02-21T07:54:22;9.80;99.90
43581;DHT22;29175;51.030;4.606;2024-02-21T07:56:48;9.80;99.90
43581;DHT22;29175;51.030;4.606;2024-02-21T07:59:15;9.80;99.90
43581;DHT22;29175;51.030;4.606;2024-02-21T08:01:40;9.80;99.90
43581;DHT22;29175;51.030;4.606;2024-02-21T08:04:07;9.70;99.90
43581;DHT22;29175;51.030;4.606;2024-02-21T08:06:36;9.80;99.90
43581;DHT22;29175;51.030;4.606;2024-02-21T08:09:02;9.80;99.90
43581;DHT22;29175;51.030;4.606;2024-02-21T08:11:29;9.90;99.90
43581;DHT22;29175;51.030;4.606;2024-02-21T08:13:55;9.90;99.90
43581;DHT22;29175;51.030;4.606;2024-02-21T08:16:24;10.00;99.90
43581;DHT22;29175;51.030;4.606;2024-02-21T08:18:49;9.80;99.90
43581;DHT22;29175;51.030;4.606;2024-02-21T08:21:15;9.90;99.90
43581;DHT22;29175;51.030;4.606;2024-02-21T08:23:45;9.90;99.90
43581;DHT22;29175;51.030;4.606;2024-02-21T08:26:11;9.90;99.90
43581;DHT22;29175;51.030;4.606;2024-02-21T08:28:37;9.90;99.90
43581;DHT22;29175;51.030;4.606;2024-02-21T08:31:03;9.80;99.90
43581;DHT22;29175;51.030;4.606;2024-02-21T08:33:30;10.00;99.90
43581;DHT22;29175;51.030;4.606;2024-02-21T08:35:56;10.00;99.90
43581;DHT22;29175;51.030;4.606;2024-02-21T08:38:22;9.90;99.90
43581;DHT22;29175;51.030;4.606;2024-02-21T08:40:49;10.00;99.90
43581;DHT22;29175;51.030;4.606;2024-02-21T08:43:15;10.10;99.90
43581;DHT22;29175;51.030;4.606;2024-02-21T08:45:41;10.10;99.90
43581;DHT22;29175;51.030;4.606;2024-02-21T08:48:07;10.20;99.90
43581;DHT22;29175;51.030;4.606;2024-02-21T08:50:33;10.30;99.90
43581;DHT22;29175;51.030;4.606;2024-02-21T08:52:59;10.40;99.90
43581;DHT22;29175;51.030;4.606;2024-02-21T08:55:26;10.30;99.90
43581;DHT22;29175;51.030;4.606;2024-02-21T08:57:52;10.30;99.90
43581;DHT22;29175;51.030;4.606;2024-02-21T09:00:18;10.20;99.90
43581;DHT22;29175;51.030;4.606;2024-02-21T09:02:49;10.30;99.90
43581;DHT22;29175;51.030;4.606;2024-02-21T09:05:15;10.40;99.90
43581;DHT22;29175;51.030;4.606;2024-02-21T09:07:41;10.30;99.90
43581;DHT22;29175;51.030;4.606;2024-02-21T09:10:07;10.20;99.90
43581;DHT22;29175;51.030;4.606;2024-02-21T09:12:33;10.20;99.90
43581;DHT22;29175;51.030;4.606;2024-02-21T09:15:00;10.20;99.90
43581;DHT22;29175;51.030;4.606;2024-02-21T09:17:28;10.20;99.90
43581;DHT22;29175;51.030;4.606;2024-02-21T09:19:57;10.30;99.90
43581;DHT22;29175;51.030;4.606;2024-02-21T09:22:29;10.40;99.90
43581;DHT22;29175;51.030;4.606;2024-02-21T09:24:56;10.30;99.90
43581;DHT22;29175;51.030;4.606;2024-02-21T09:27:22;10.40;99.90
43581;DHT22;29175;51.030;4.606;2024-02-21T09:29:48;10.60;99.90
43581;DHT22;29175;51.030;4.606;2024-02-21T09:32:14;10.70;99.90
43581;DHT22;29175;51.030;4.606;2024-02-21T09:34:40;10.90;99.90
43581;DHT22;29175;51.030;4.606;2024-02-21T09:37:06;10.90;99.90
43581;DHT22;29175;51.030;4.606;2024-02-21T09:39:32;10.80;99.90
43581;DHT22;29175;51.030;4.606;2024-02-21T09:42:05;10.80;99.90
43581;DHT22;29175;51.030;4.606;2024-02-21T09:44:36;11.00;99.90
43581;DHT22;29175;51.030;4.606;2024-02-21T09:47:19;11.00;99.90
43581;DHT22;29175;51.030;4.606;2024-02-21T09:49:46;11.00;99.90
43581;DHT22;29175;51.030;4.606;2024-02-21T09:52:15;11.00;99.90
43581;DHT22;29175;51.030;4.606;2024-02-21T09:54:44;11.20;99.90
43581;DHT22;29175;51.030;4.606;2024-02-21T09:57:11;11.20;99.90
43581;DHT22;29175;51.030;4.606;2024-02-21T09:59:39;11.30;99.90
43581;DHT22;29175;51.030;4.606;2024-02-21T10:02:09;11.30;99.90
43581;DHT22;29175;51.030;4.606;2024-02-21T10:04:36;11.20;99.90
43581;DHT22;29175;51.030;4.606;2024-02-21T10:07:03;11.30;99.90
43581;DHT22;29175;51.030;4.606;2024-02-21T10:09:29;11.30;99.90
43581;DHT22;29175;51.030;4.606;2024-02-21T10:12:09;11.30;99.90
43581;DHT22;29175;51.030;4.606;2024-02-21T10:14:37;11.40;99.90
43581;DHT22;29175;51.030;4.606;2024-02-21T10:17:04;11.50;99.90
43581;DHT22;29175;51.030;4.606;2024-02-21T10:19:35;11.40;99.90
43581;DHT22;29175;51.030;4.606;2024-02-21T10:22:04;11.40;99.90
43581;DHT22;29175;51.030;4.606;2024-02-21T10:24:31;11.50;99.90
43581;DHT22;29175;51.030;4.606;2024-02-21T10:27:05;11.40;99.90
43581;DHT22;29175;51.030;4.606;2024-02-21T10:29:34;11.40;99.90
43581;DHT22;29175;51.030;4.606;2024-02-21T10:32:10;11.40;99.90
43581;DHT22;29175;51.030;4.606;2024-02-21T10:34:38;11.30;99.90
43581;DHT22;29175;51.030;4.606;2024-02-21T10:37:06;11.40;99.90
43581;DHT22;29175;51.030;4.606;2024-02-21T10:39:34;11.40;99.90
43581;DHT22;29175;51.030;4.606;2024-02-21T10:42:01;11.60;99.90
43581;DHT22;29175;51.030;4.606;2024-02-21T10:44:32;11.70;99.90
43581;DHT22;29175;51.030;4.606;2024-02-21T10:46:59;11.80;99.90
43581;DHT22;29175;51.030;4.606;2024-02-21T10:49:30;11.70;99.90
43581;DHT22;29175;51.030;4.606;2024-02-21T10:52:13;11.60;99.90
43581;DHT22;29175;51.030;4.606;2024-02-21T10:55:04;11.50;99.90
43581;DHT22;29175;51.030;4.606;2024-02-21T10:57:35;11.50;99.90
43581;DHT22;29175;51.030;4.606;2024-02-21T11:00:04;11.50;99.90
43581;DHT22;29175;51.030;4.606;2024-02-21T11:02:34;11.40;99.90
43581;DHT22;29175;51.030;4.606;2024-02-21T11:05:02;11.50;99.90
43581;DHT22;29175;51.030;4.606;2024-02-21T11:07:30;11.60;99.90
43581;DHT22;29175;51.030;4.606;2024-02-21T11:09:58;11.70;99.90
43581;DHT22;29175;51.030;4.606;2024-02-21T11:12:25;11.80;99.90
43581;DHT22;29175;51.030;4.606;2024-02-21T11:14:51;11.90;99.90
43581;DHT22;29175;51.030;4.606;2024-02-21T11:17:18;11.90;99.90
43581;DHT22;29175;51.030;4.606;2024-02-21T11:19:45;11.80;99.90
43581;DHT22;29175;51.030;4.606;2024-02-21T11:22:20;12.00;99.90
43581;DHT22;29175;51.030;4.606;2024-02-21T11:24:48;12.10;99.90
43581;DHT22;29175;51.030;4.606;2024-02-21T11:27:21;12.20;99.90
43581;DHT22;29175;51.030;4.606;2024-02-21T11:29:49;12.30;99.90
43581;DHT22;29175;51.030;4.606;2024-02-21T11:32:19;12.40;99.90
43581;DHT22;29175;51.030;4.606;2024-02-21T11:35:02;12.50;99.90
43581;DHT22;29175;51.030;4.606;2024-02-21T11:37:31;12.40;99.90
43581;DHT22;29175;51.030;4.606;2024-02-21T11:39:59;12.40;99.90
43581;DHT22;29175;51.030;4.606;2024-02-21T11:42:28;12.60;99.90
43581;DHT22;29175;51.030;4.606;2024-02-21T11:44:55;12.40;99.90
43581;DHT22;29175;51.030;4.606;2024-02-21T11:47:24;12.40;99.90
43581;DHT22;29175;51.030;4.606;2024-02-21T11:49:50;12.30;99.90
43581;DHT22;29175;51.030;4.606;2024-02-21T11:52:23;12.30;99.90
43581;DHT22;29175;51.030;4.606;2024-02-21T11:54:51;12.10;99.90
43581;DHT22;29175;51.030;4.606;2024-02-21T11:57:24;12.20;99.90
43581;DHT22;29175;51.030;4.606;2024-02-21T11:59:53;12.30;99.90
43581;DHT22;29175;51.030;4.606;2024-02-21T12:02:20;12.40;99.90
43581;DHT22;29175;51.030;4.606;2024-02-21T12:04:48;12.20;99.90
43581;DHT22;29175;51.030;4.606;2024-02-21T12:07:17;12.10;99.90
43581;DHT22;29175;51.030;4.606;2024-02-21T12:09:44;11.90;99.90
43581;DHT22;29175;51.030;4.606;2024-02-21T12:12:11;11.60;99.90
43581;DHT22;29175;51.030;4.606;2024-02-21T12:14:36;11.70;99.90
43581;DHT22;29175;51.030;4.606;2024-02-21T12:17:03;11.70;99.90
43581;DHT22;29175;51.030;4.606;2024-02-21T12:19:33;11.80;99.90
43581;DHT22;29175;51.030;4.606;2024-02-21T12:22:00;11.70;99.90
43581;DHT22;29175;51.030;4.606;2024-02-21T12:24:27;11.50;99.90
43581;DHT22;29175;51.030;4.606;2024-02-21T12:26:54;11.40;99.90
43581;DHT22;29175;51.030;4.606;2024-02-21T12:29:21;11.40;99.90
43581;DHT22;29175;51.030;4.606;2024-02-21T12:31:47;11.50;99.90
43581;DHT22;29175;51.030;4.606;2024-02-21T12:34:15;11.40;99.90
43581;DHT22;29175;51.030;4.606;2024-02-21T12:36:45;11.30;99.90
43581;DHT22;29175;51.030;4.606;2024-02-21T12:39:15;11.30;99.90
43581;DHT22;29175;51.030;4.606;2024-02-21T12:41:42;11.20;99.90
43581;DHT22;29175;51.030;4.606;2024-02-21T12:44:10;11.30;99.90
43581;DHT22;29175;51.030;4.606;2024-02-21T12:46:37;11.20;99.90
43581;DHT22;29175;51.030;4.606;2024-02-21T12:49:04;11.20;99.90
43581;DHT22;29175;51.030;4.606;2024-02-21T12:51:31;11.20;99.90
43581;DHT22;29175;51.030;4.606;2024-02-21T12:53:58;11.40;99.90
43581;DHT22;29175;51.030;4.606;2024-02-21T12:56:25;11.30;99.90
43581;DHT22;29175;51.030;4.606;2024-02-21T12:58:52;11.30;99.90
43581;DHT22;29175;51.030;4.606;2024-02-21T13:01:18;11.30;99.90
43581;DHT22;29175;51.030;4.606;2024-02-21T13:03:44;11.20;99.90
43581;DHT22;29175;51.030;4.606;2024-02-21T13:06:13;11.20;99.90
43581;DHT22;29175;51.030;4.606;2024-02-21T13:08:39;11.30;99.90
43581;DHT22;29175;51.030;4.606;2024-02-21T13:11:05;11.30;99.90
43581;DHT22;29175;51.030;4.606;2024-02-21T13:13:31;11.20;99.90
43581;DHT22;29175;51.030;4.606;2024-02-21T13:16:00;11.20;99.90
43581;DHT22;29175;51.030;4.606;2024-02-21T13:18:26;11.30;99.90
43581;DHT22;29175;51.030;4.606;2024-02-21T13:20:51;11.40;99.90
43581;DHT22;29175;51.030;4.606;2024-02-21T13:23:19;11.60;99.90
43581;DHT22;29175;51.030;4.606;2024-02-21T13:25:47;11.50;99.90
43581;DHT22;29175;51.030;4.606;2024-02-21T13:28:14;11.60;99.90
43581;DHT22;29175;51.030;4.606;2024-02-21T13:30:43;11.70;99.90
43581;DHT22;29175;51.030;4.606;2024-02-21T13:33:09;11.80;99.90
43581;DHT22;29175;51.030;4.606;2024-02-21T13:35:36;11.70;99.90
43581;DHT22;29175;51.030;4.606;2024-02-21T13:38:03;11.80;99.90
43581;DHT22;29175;51.030;4.606;2024-02-21T13:40:30;11.70;99.90
43581;DHT22;29175;51.030;4.606;2024-02-21T13:42:56;11.60;99.90
43581;DHT22;29175;51.030;4.606;2024-02-21T13:45:23;11.40;99.90
43581;DHT22;29175;51.030;4.606;2024-02-21T13:47:50;11.40;99.90
43581;DHT22;29175;51.030;4.606;2024-02-21T13:50:16;11.50;99.90
43581;DHT22;29175;51.030;4.606;2024-02-21T13:52:43;11.60;99.90
43581;DHT22;29175;51.030;4.606;2024-02-21T13:55:10;11.50;99.90
43581;DHT22;29175;51.030;4.606;2024-02-21T13:57:36;11.30;99.90
43581;DHT22;29175;51.030;4.606;2024-02-21T14:00:06;11.40;99.90
43581;DHT22;29175;51.030;4.606;2024-02-21T14:02:36;11.40;99.90
43581;DHT22;29175;51.030;4.606;2024-02-21T14:05:02;11.40;99.90
43581;DHT22;29175;51.030;4.606;2024-02-21T14:07:32;11.40;99.90
43581;DHT22;29175;51.030;4.606;2024-02-21T14:10:02;11.40;99.90
43581;DHT22;29175;51.030;4.606;2024-02-21T14:12:30;11.20;99.90
43581;DHT22;29175;51.030;4.606;2024-02-21T14:14:57;11.20;99.90
43581;DHT22;29175;51.030;4.606;2024-02-21T14:17:24;11.20;99.90
43581;DHT22;29175;51.030;4.606;2024-02-21T14:19:50;11.20;99.90
43581;DHT22;29175;51.030;4.606;2024-02-21T14:22:18;11.30;99.90
43581;DHT22;29175;51.030;4.606;2024-02-21T14:24:44;11.20;99.90
43581;DHT22;29175;51.030;4.606;2024-02-21T14:27:12;11.20;99.90
43581;DHT22;29175;51.030;4.606;2024-02-21T14:29:39;11.10;99.90
43581;DHT22;29175;51.030;4.606;2024-02-21T14:32:07;11.10;99.90
43581;DHT22;29175;51.030;4.606;2024-02-21T14:34:35;11.10;99.90
43581;DHT22;29175;51.030;4.606;2024-02-21T14:37:03;11.00;99.90
43581;DHT22;29175;51.030;4.606;2024-02-21T14:39:30;10.90;99.90
43581;DHT22;29175;51.030;4.606;2024-02-21T14:41:57;10.90;99.90
43581;DHT22;29175;51.030;4.606;2024-02-21T14:44:24;11.00;99.90
43581;DHT22;29175;51.030;4.606;2024-02-21T14:46:50;11.00;99.90
43581;DHT22;29175;51.030;4.606;2024-02-21T14:49:15;10.90;99.90
43581;DHT22;29175;51.030;4.606;2024-02-21T14:51:42;10.70;99.90
43581;DHT22;29175;51.030;4.606;2024-02-21T14:54:09;10.80;99.90
43581;DHT22;29175;51.030;4.606;2024-02-21T14:56:36;10.70;99.90
43581;DHT22;29175;51.030;4.606;2024-02-21T14:59:02;10.80;99.90
43581;DHT22;29175;51.030;4.606;2024-02-21T15:01:29;10.90;99.90
43581;DHT22;29175;51.030;4.606;2024-02-21T15:03:55;10.70;99.90
43581;DHT22;29175;51.030;4.606;2024-02-21T15:06:21;10.60;99.90
43581;DHT22;29175;51.030;4.606;2024-02-21T15:08:46;10.60;99.90
43581;DHT22;29175;51.030;4.606;2024-02-21T15:11:14;10.60;99.90
43581;DHT22;29175;51.030;4.606;2024-02-21T15:13:41;10.50;99.90
43581;DHT22;29175;51.030;4.606;2024-02-21T15:16:10;10.50;99.90
43581;DHT22;29175;51.030;4.606;2024-02-21T15:18:37;10.30;99.90
43581;DHT22;29175;51.030;4.606;2024-02-21T15:21:04;10.30;99.90
43581;DHT22;29175;51.030;4.606;2024-02-21T15:23:31;10.30;99.90
43581;DHT22;29175;51.030;4.606;2024-02-21T15:25:58;10.40;99.90
43581;DHT22;29175;51.030;4.606;2024-02-21T15:28:26;10.30;99.90
43581;DHT22;29175;51.030;4.606;2024-02-21T15:30:54;10.20;99.90
43581;DHT22;29175;51.030;4.606;2024-02-21T15:33:20;10.20;99.90
43581;DHT22;29175;51.030;4.606;2024-02-21T15:35:46;10.00;99.90
43581;DHT22;29175;51.030;4.606;2024-02-21T15:38:14;10.00;99.90